sensor_id;sensor_type;location;lat;lon;timestamp;temperature;humidity
22940;DHT22;11636;52.086;5.090;2023-07-28T00:00:28;18.00;99.90
22940;DHT22;11636;52.086;5.090;2023-07-28T00:03:22;18.00;99.90
22940;DHT22;11636;52.086;5.090;2023-07-28T00:06:09;18.00;99.90
22940;DHT22;11636;52.086;5.090;2023-07-28T00:09:03;18.00;99.90
22940;DHT22;11636;52.086;5.090;2023-07-28T00:11:50;18.00;99.90
22940;DHT22;11636;52.086;5.090;2023-07-28T00:14:44;18.00;99.90
22940;DHT22;11636;52.086;5.090;2023-07-28T00:17:31;18.00;99.90
22940;DHT22;11636;52.086;5.090;2023-07-28T00:20:25;18.00;99.90
22940;DHT22;11636;52.086;5.090;2023-07-28T00:23:13;18.00;99.90
22940;DHT22;11636;52.086;5.090;2023-07-28T00:26:07;18.00;99.90
22940;DHT22;11636;52.086;5.090;2023-07-28T00:28:54;18.00;99.90
22940;DHT22;11636;52.086;5.090;2023-07-28T00:31:48;18.00;99.90
22940;DHT22;11636;52.086;5.090;2023-07-28T00:34:42;18.00;99.90
22940;DHT22;11636;52.086;5.090;2023-07-28T00:37:29;18.00;99.90
22940;DHT22;11636;52.086;5.090;2023-07-28T00:40:23;18.00;99.90
22940;DHT22;11636;52.086;5.090;2023-07-28T00:43:10;18.00;99.90
22940;DHT22;11636;52.086;5.090;2023-07-28T00:46:04;18.00;99.90
22940;DHT22;11636;52.086;5.090;2023-07-28T00:48:51;18.00;99.90
22940;DHT22;11636;52.086;5.090;2023-07-28T00:51:46;18.00;99.90
22940;DHT22;11636;52.086;5.090;2023-07-28T00:54:40;18.00;99.90
22940;DHT22;11636;52.086;5.090;2023-07-28T00:57:34;18.00;99.90
22940;DHT22;11636;52.086;5.090;2023-07-28T01:00:28;18.00;99.90
22940;DHT22;11636;52.086;5.090;2023-07-28T01:03:17;18.00;99.90
22940;DHT22;11636;52.086;5.090;2023-07-28T01:06:26;18.00;99.90
22940;DHT22;11636;52.086;5.090;2023-07-28T01:09:16;18.00;99.90
22940;DHT22;11636;52.086;5.090;2023-07-28T01:12:12;18.00;99.90
22940;DHT22;11636;52.086;5.090;2023-07-28T01:14:59;18.00;99.90
22940;DHT22;11636;52.086;5.090;2023-07-28T01:17:53;18.00;99.90
22940;DHT22;11636;52.086;5.090;2023-07-28T01:20:47;18.00;99.90
22940;DHT22;11636;52.086;5.090;2023-07-28T01:24:05;18.00;99.90
22940;DHT22;11636;52.086;5.090;2023-07-28T01:27:02;18.00;99.90
22940;DHT22;11636;52.086;5.090;2023-07-28T01:29:50;18.00;99.90
22940;DHT22;11636;52.086;5.090;2023-07-28T01:32:44;18.00;99.90
22940;DHT22;11636;52.086;5.090;2023-07-28T01:35:31;17.90;99.90
22940;DHT22;11636;52.086;5.090;2023-07-28T01:38:25;17.80;99.90
22940;DHT22;11636;52.086;5.090;2023-07-28T01:41:12;17.80;99.90
22940;DHT22;11636;52.086;5.090;2023-07-28T01:44:06;17.80;99.90
22940;DHT22;11636;52.086;5.090;2023-07-28T01:46:53;17.70;99.90
22940;DHT22;11636;52.086;5.090;2023-07-28T01:49:47;17.70;99.90
22940;DHT22;11636;52.086;5.090;2023-07-28T01:52:34;17.70;99.90
22940;DHT22;11636;52.086;5.090;2023-07-28T01:55:28;17.70;99.90
22940;DHT22;11636;52.086;5.090;2023-07-28T01:58:16;17.70;99.90
22940;DHT22;11636;52.086;5.090;2023-07-28T02:01:12;17.70;99.90
22940;DHT22;11636;52.086;5.090;2023-07-28T02:04:06;17.60;99.90
22940;DHT22;11636;52.086;5.090;2023-07-28T02:06:53;17.70;99.90
22940;DHT22;11636;52.086;5.090;2023-07-28T02:09:47;17.60;99.90
22940;DHT22;11636;52.086;5.090;2023-07-28T02:12:34;17.60;99.90
22940;DHT22;11636;52.086;5.090;2023-07-28T02:15:28;17.60;99.90
22940;DHT22;11636;52.086;5.090;2023-07-28T02:18:15;17.60;99.90
22940;DHT22;11636;52.086;5.090;2023-07-28T02:21:09;17.60;99.90
22940;DHT22;11636;52.086;5.090;2023-07-28T02:24:03;17.60;99.90
22940;DHT22;11636;52.086;5.090;2023-07-28T02:26:50;17.60;99.90
22940;DHT22;11636;52.086;5.090;2023-07-28T02:29:44;17.60;99.90
22940;DHT22;11636;52.086;5.090;2023-07-28T02:32:32;17.60;99.90
22940;DHT22;11636;52.086;5.090;2023-07-28T02:35:26;17.60;99.90
22940;DHT22;11636;52.086;5.090;2023-07-28T02:38:13;17.70;99.90
22940;DHT22;11636;52.086;5.090;2023-07-28T02:41:07;17.70;99.90
22940;DHT22;11636;52.086;5.090;2023-07-28T02:43:54;17.70;99.90
22940;DHT22;11636;52.086;5.090;2023-07-28T02:46:48;17.70;99.90
22940;DHT22;11636;52.086;5.090;2023-07-28T02:49:42;17.70;99.90
22940;DHT22;11636;52.086;5.090;2023-07-28T02:52:30;17.70;99.90
22940;DHT22;11636;52.086;5.090;2023-07-28T02:55:24;17.70;99.90
22940;DHT22;11636;52.086;5.090;2023-07-28T02:58:11;17.70;99.90
22940;DHT22;11636;52.086;5.090;2023-07-28T03:01:05;17.70;99.90
22940;DHT22;11636;52.086;5.090;2023-07-28T03:03:52;17.70;99.90
22940;DHT22;11636;52.086;5.090;2023-07-28T03:06:46;17.70;99.90
22940;DHT22;11636;52.086;5.090;2023-07-28T03:09:35;17.70;99.90
22940;DHT22;11636;52.086;5.090;2023-07-28T03:12:28;17.70;99.90
22940;DHT22;11636;52.086;5.090;2023-07-28T03:15:22;17.70;99.90
22940;DHT22;11636;52.086;5.090;2023-07-28T03:18:16;17.80;99.90
22940;DHT22;11636;52.086;5.090;2023-07-28T03:21:10;17.70;99.90
22940;DHT22;11636;52.086;5.090;2023-07-28T03:24:04;17.80;99.90
22940;DHT22;11636;52.086;5.090;2023-07-28T03:26:58;17.80;99.90
22940;DHT22;11636;52.086;5.090;2023-07-28T03:29:52;17.80;99.90
22940;DHT22;11636;52.086;5.090;2023-07-28T03:32:46;17.80;99.90
22940;DHT22;11636;52.086;5.090;2023-07-28T03:35:40;17.80;99.90
22940;DHT22;11636;52.086;5.090;2023-07-28T03:38:27;17.80;99.90
22940;DHT22;11636;52.086;5.090;2023-07-28T03:41:21;17.80;99.90
22940;DHT22;11636;52.086;5.090;2023-07-28T03:44:08;17.80;99.90
22940;DHT22;11636;52.086;5.090;2023-07-28T03:47:02;17.80;99.90
22940;DHT22;11636;52.086;5.090;2023-07-28T03:49:49;17.80;99.90
22940;DHT22;11636;52.086;5.090;2023-07-28T03:52:43;17.80;99.90
22940;DHT22;11636;52.086;5.090;2023-07-28T03:55:37;17.80;99.90
22940;DHT22;11636;52.086;5.090;2023-07-28T03:58:25;17.80;99.90
22940;DHT22;11636;52.086;5.090;2023-07-28T04:01:19;17.80;99.90
22940;DHT22;11636;52.086;5.090;2023-07-28T04:04:08;17.80;99.90
22940;DHT22;11636;52.086;5.090;2023-07-28T04:07:02;17.80;99.90
22940;DHT22;11636;52.086;5.090;2023-07-28T04:09:49;17.80;99.90
22940;DHT22;11636;52.086;5.090;2023-07-28T04:12:43;17.80;99.90
22940;DHT22;11636;52.086;5.090;2023-07-28T04:15:30;17.90;99.90
22940;DHT22;11636;52.086;5.090;2023-07-28T04:18:24;17.80;99.90
22940;DHT22;11636;52.086;5.090;2023-07-28T04:21:11;17.90;99.90
22940;DHT22;11636;52.086;5.090;2023-07-28T04:24:07;17.80;99.90
22940;DHT22;11636;52.086;5.090;2023-07-28T04:27:01;17.90;99.90
22940;DHT22;11636;52.086;5.090;2023-07-28T04:29:48;17.90;99.90
22940;DHT22;11636;52.086;5.090;2023-07-28T04:32:42;17.90;99.90
22940;DHT22;11636;52.086;5.090;2023-07-28T04:35:32;17.90;99.90
22940;DHT22;11636;52.086;5.090;2023-07-28T04:38:33;17.90;99.90
22940;DHT22;11636;52.086;5.090;2023-07-28T04:41:26;17.90;99.90
22940;DHT22;11636;52.086;5.090;2023-07-28T04:44:27;17.90;99.90
22940;DHT22;11636;52.086;5.090;2023-07-28T04:47:21;17.90;99.90
22940;DHT22;11636;52.086;5.090;2023-07-28T04:50:08;17.90;99.90
22940;DHT22;11636;52.086;5.090;2023-07-28T04:53:02;17.90;99.90
22940;DHT22;11636;52.086;5.090;2023-07-28T04:55:56;17.90;99.90
22940;DHT22;11636;52.086;5.090;2023-07-28T04:58:43;18.00;99.90
22940;DHT22;11636;52.086;5.090;2023-07-28T05:01:37;17.90;99.90
22940;DHT22;11636;52.086;5.090;2023-07-28T05:04:25;17.90;99.90
22940;DHT22;11636;52.086;5.090;2023-07-28T05:07:19;18.00;99.90
22940;DHT22;11636;52.086;5.090;2023-07-28T05:10:07;17.90;99.90
22940;DHT22;11636;52.086;5.090;2023-07-28T05:13:01;18.00;99.90
22940;DHT22;11636;52.086;5.090;2023-07-28T05:15:51;18.00;99.90
22940;DHT22;11636;52.086;5.090;2023-07-28T05:18:44;18.00;99.90
22940;DHT22;11636;52.086;5.090;2023-07-28T05:21:38;18.00;99.90
22940;DHT22;11636;52.086;5.090;2023-07-28T05:24:26;18.00;99.90
22940;DHT22;11636;52.086;5.090;2023-07-28T05:27:19;18.00;99.90
22940;DHT22;11636;52.086;5.090;2023-07-28T05:30:07;18.00;99.90
22940;DHT22;11636;52.086;5.090;2023-07-28T05:33:00;18.00;99.90
22940;DHT22;11636;52.086;5.090;2023-07-28T05:35:47;18.00;99.90
22940;DHT22;11636;52.086;5.090;2023-07-28T05:38:41;18.00;99.90
22940;DHT22;11636;52.086;5.090;2023-07-28T05:41:36;18.00;99.90
22940;DHT22;11636;52.086;5.090;2023-07-28T05:44:30;18.10;99.90
22940;DHT22;11636;52.086;5.090;2023-07-28T05:47:24;18.10;99.90
22940;DHT22;11636;52.086;5.090;2023-07-28T05:50:11;18.10;99.90
22940;DHT22;11636;52.086;5.090;2023-07-28T05:53:05;18.10;99.90
22940;DHT22;11636;52.086;5.090;2023-07-28T05:55:52;18.10;99.90
22940;DHT22;11636;52.086;5.090;2023-07-28T05:58:47;18.20;99.90
22940;DHT22;11636;52.086;5.090;2023-07-28T06:01:34;18.20;99.90
22940;DHT22;11636;52.086;5.090;2023-07-28T06:04:28;18.30;99.90
22940;DHT22;11636;52.086;5.090;2023-07-28T06:07:15;18.30;99.90
22940;DHT22;11636;52.086;5.090;2023-07-28T06:10:09;18.30;99.90
22940;DHT22;11636;52.086;5.090;2023-07-28T06:13:03;18.30;99.90
22940;DHT22;11636;52.086;5.090;2023-07-28T06:15:53;18.30;99.90
22940;DHT22;11636;52.086;5.090;2023-07-28T06:18:47;18.40;99.90
22940;DHT22;11636;52.086;5.090;2023-07-28T06:21:34;18.40;99.90
22940;DHT22;11636;52.086;5.090;2023-07-28T06:24:29;18.40;99.90
22940;DHT22;11636;52.086;5.090;2023-07-28T06:27:17;18.40;99.90
22940;DHT22;11636;52.086;5.090;2023-07-28T06:30:11;18.30;99.90
22940;DHT22;11636;52.086;5.090;2023-07-28T06:33:06;18.40;99.90
22940;DHT22;11636;52.086;5.090;2023-07-28T06:35:53;18.40;99.90
22940;DHT22;11636;52.086;5.090;2023-07-28T06:38:47;18.40;99.90
22940;DHT22;11636;52.086;5.090;2023-07-28T06:41:36;18.40;99.90
22940;DHT22;11636;52.086;5.090;2023-07-28T06:44:35;18.40;99.90
22940;DHT22;11636;52.086;5.090;2023-07-28T06:47:22;18.40;99.90
22940;DHT22;11636;52.086;5.090;2023-07-28T06:50:15;18.50;99.90
22940;DHT22;11636;52.086;5.090;2023-07-28T06:53:09;18.50;99.90
22940;DHT22;11636;52.086;5.090;2023-07-28T06:55:56;18.40;99.90
22940;DHT22;11636;52.086;5.090;2023-07-28T06:58:50;18.50;99.90
22940;DHT22;11636;52.086;5.090;2023-07-28T07:01:54;18.60;99.90
22940;DHT22;11636;52.086;5.090;2023-07-28T07:04:48;18.60;99.90
22940;DHT22;11636;52.086;5.090;2023-07-28T07:07:36;18.60;99.90
22940;DHT22;11636;52.086;5.090;2023-07-28T07:10:29;18.60;99.90
22940;DHT22;11636;52.086;5.090;2023-07-28T07:13:17;18.60;99.90
22940;DHT22;11636;52.086;5.090;2023-07-28T07:16:15;18.70;99.90
22940;DHT22;11636;52.086;5.090;2023-07-28T07:19:10;18.80;99.90
22940;DHT22;11636;52.086;5.090;2023-07-28T07:21:58;18.80;99.90
22940;DHT22;11636;52.086;5.090;2023-07-28T07:24:51;18.80;99.90
22940;DHT22;11636;52.086;5.090;2023-07-28T07:27:39;18.70;99.90
22940;DHT22;11636;52.086;5.090;2023-07-28T07:30:35;18.70;99.90
22940;DHT22;11636;52.086;5.090;2023-07-28T07:33:23;18.70;99.90
22940;DHT22;11636;52.086;5.090;2023-07-28T07:36:18;18.70;99.90
22940;DHT22;11636;52.086;5.090;2023-07-28T07:39:12;18.80;99.90
22940;DHT22;11636;52.086;5.090;2023-07-28T07:42:00;18.80;99.90
22940;DHT22;11636;52.086;5.090;2023-07-28T07:44:53;18.80;99.90
22940;DHT22;11636;52.086;5.090;2023-07-28T07:47:41;18.80;99.90
22940;DHT22;11636;52.086;5.090;2023-07-28T07:50:35;18.80;99.90
22940;DHT22;11636;52.086;5.090;2023-07-28T07:53:23;18.80;99.90
22940;DHT22;11636;52.086;5.090;2023-07-28T07:56:16;18.90;99.90
22940;DHT22;11636;52.086;5.090;2023-07-28T07:59:05;19.10;99.90
22940;DHT22;11636;52.086;5.090;2023-07-28T08:01:59;19.20;99.90
22940;DHT22;11636;52.086;5.090;2023-07-28T08:04:54;19.30;99.90
22940;DHT22;11636;52.086;5.090;2023-07-28T08:07:47;19.40;99.90
22940;DHT22;11636;52.086;5.090;2023-07-28T08:10:41;19.50;99.90
22940;DHT22;11636;52.086;5.090;2023-07-28T08:13:29;19.50;99.90
22940;DHT22;11636;52.086;5.090;2023-07-28T08:16:22;19.60;99.90
22940;DHT22;11636;52.086;5.090;2023-07-28T08:19:10;19.60;99.90
22940;DHT22;11636;52.086;5.090;2023-07-28T08:22:03;19.60;99.90
22940;DHT22;11636;52.086;5.090;2023-07-28T08:24:51;19.70;99.90
22940;DHT22;11636;52.086;5.090;2023-07-28T08:27:44;19.90;99.90
22940;DHT22;11636;52.086;5.090;2023-07-28T08:30:32;20.00;99.90
22940;DHT22;11636;52.086;5.090;2023-07-28T08:33:26;20.10;99.90
22940;DHT22;11636;52.086;5.090;2023-07-28T08:36:14;20.30;99.90
22940;DHT22;11636;52.086;5.090;2023-07-28T08:39:07;20.50;99.90
22940;DHT22;11636;52.086;5.090;2023-07-28T08:42:03;20.70;99.90
22940;DHT22;11636;52.086;5.090;2023-07-28T08:44:57;20.80;99.90
22940;DHT22;11636;52.086;5.090;2023-07-28T08:47:45;20.80;99.90
22940;DHT22;11636;52.086;5.090;2023-07-28T08:50:39;20.80;99.90
22940;DHT22;11636;52.086;5.090;2023-07-28T08:53:33;20.90;99.90
22940;DHT22;11636;52.086;5.090;2023-07-28T08:56:21;20.80;99.90
22940;DHT22;11636;52.086;5.090;2023-07-28T08:59:22;20.70;99.90
22940;DHT22;11636;52.086;5.090;2023-07-28T09:02:18;20.80;99.90
22940;DHT22;11636;52.086;5.090;2023-07-28T09:05:06;20.90;99.90
22940;DHT22;11636;52.086;5.090;2023-07-28T09:07:59;20.90;99.90
22940;DHT22;11636;52.086;5.090;2023-07-28T09:10:54;21.00;99.90
22940;DHT22;11636;52.086;5.090;2023-07-28T09:13:44;21.00;99.90
22940;DHT22;11636;52.086;5.090;2023-07-28T09:16:39;21.00;99.90
22940;DHT22;11636;52.086;5.090;2023-07-28T09:19:26;21.10;99.90
22940;DHT22;11636;52.086;5.090;2023-07-28T09:22:20;21.30;99.90
22940;DHT22;11636;52.086;5.090;2023-07-28T09:25:13;21.30;99.90
22940;DHT22;11636;52.086;5.090;2023-07-28T09:28:07;21.30;99.90
22940;DHT22;11636;52.086;5.090;2023-07-28T09:31:08;21.40;99.90
22940;DHT22;11636;52.086;5.090;2023-07-28T09:33:56;21.60;99.90
22940;DHT22;11636;52.086;5.090;2023-07-28T09:36:51;21.70;99.90
22940;DHT22;11636;52.086;5.090;2023-07-28T09:39:40;21.80;99.90
22940;DHT22;11636;52.086;5.090;2023-07-28T09:42:35;21.90;99.90
22940;DHT22;11636;52.086;5.090;2023-07-28T09:45:31;22.00;99.90
22940;DHT22;11636;52.086;5.090;2023-07-28T09:48:27;22.20;99.90
22940;DHT22;11636;52.086;5.090;2023-07-28T09:51:18;22.20;99.90
22940;DHT22;11636;52.086;5.090;2023-07-28T09:54:24;22.20;99.90
22940;DHT22;11636;52.086;5.090;2023-07-28T09:57:21;22.10;99.90
22940;DHT22;11636;52.086;5.090;2023-07-28T10:00:10;22.00;99.90
22940;DHT22;11636;52.086;5.090;2023-07-28T10:03:05;22.00;99.90
22940;DHT22;11636;52.086;5.090;2023-07-28T10:05:59;22.20;99.90
22940;DHT22;11636;52.086;5.090;2023-07-28T10:08:54;22.30;99.90
22940;DHT22;11636;52.086;5.090;2023-07-28T10:11:41;22.30;99.90
22940;DHT22;11636;52.086;5.090;2023-07-28T10:14:36;22.30;99.90
22940;DHT22;11636;52.086;5.090;2023-07-28T10:17:34;22.40;99.90
22940;DHT22;11636;52.086;5.090;2023-07-28T10:20:38;22.60;99.90
22940;DHT22;11636;52.086;5.090;2023-07-28T10:23:40;22.90;99.90
22940;DHT22;11636;52.086;5.090;2023-07-28T10:29:37;23.20;99.90
22940;DHT22;11636;52.086;5.090;2023-07-28T10:32:45;23.40;99.90
22940;DHT22;11636;52.086;5.090;2023-07-28T10:35:47;23.60;99.90
22940;DHT22;11636;52.086;5.090;2023-07-28T10:38:35;23.80;99.90
22940;DHT22;11636;52.086;5.090;2023-07-28T10:41:30;23.80;99.90
22940;DHT22;11636;52.086;5.090;2023-07-28T10:44:26;23.90;99.90
22940;DHT22;11636;52.086;5.090;2023-07-28T10:47:13;24.00;99.90
22940;DHT22;11636;52.086;5.090;2023-07-28T10:50:11;24.00;99.90
22940;DHT22;11636;52.086;5.090;2023-07-28T10:53:05;24.20;99.90
22940;DHT22;11636;52.086;5.090;2023-07-28T10:55:53;24.30;99.90
22940;DHT22;11636;52.086;5.090;2023-07-28T10:58:47;24.40;99.90
22940;DHT22;11636;52.086;5.090;2023-07-28T11:01:49;24.30;99.90
22940;DHT22;11636;52.086;5.090;2023-07-28T11:04:36;24.10;99.90
22940;DHT22;11636;52.086;5.090;2023-07-28T11:07:30;24.00;99.90
22940;DHT22;11636;52.086;5.090;2023-07-28T11:10:18;24.00;99.90
22940;DHT22;11636;52.086;5.090;2023-07-28T11:13:13;24.00;99.90
22940;DHT22;11636;52.086;5.090;2023-07-28T11:16:21;23.80;99.90
22940;DHT22;11636;52.086;5.090;2023-07-28T11:19:15;23.70;99.90
22940;DHT22;11636;52.086;5.090;2023-07-28T11:22:10;23.60;99.90
22940;DHT22;11636;52.086;5.090;2023-07-28T11:25:06;23.80;99.90
22940;DHT22;11636;52.086;5.090;2023-07-28T11:27:57;23.80;99.90
22940;DHT22;11636;52.086;5.090;2023-07-28T11:30:57;23.70;99.90
22940;DHT22;11636;52.086;5.090;2023-07-28T11:33:52;23.50;99.90
22940;DHT22;11636;52.086;5.090;2023-07-28T11:36:49;23.50;99.90
22940;DHT22;11636;52.086;5.090;2023-07-28T11:39:37;23.70;99.90
22940;DHT22;11636;52.086;5.090;2023-07-28T11:42:34;24.00;99.90
22940;DHT22;11636;52.086;5.090;2023-07-28T11:45:22;24.20;99.90
22940;DHT22;11636;52.086;5.090;2023-07-28T11:48:16;24.10;99.90
22940;DHT22;11636;52.086;5.090;2023-07-28T11:51:04;24.00;99.90
22940;DHT22;11636;52.086;5.090;2023-07-28T11:53:58;23.80;99.90
22940;DHT22;11636;52.086;5.090;2023-07-28T11:56:46;23.70;99.90
22940;DHT22;11636;52.086;5.090;2023-07-28T11:59:40;23.50;99.90
22940;DHT22;11636;52.086;5.090;2023-07-28T12:02:34;23.20;99.90
22940;DHT22;11636;52.086;5.090;2023-07-28T12:05:22;23.10;99.90
22940;DHT22;11636;52.086;5.090;2023-07-28T12:08:33;22.90;99.90
22940;DHT22;11636;52.086;5.090;2023-07-28T12:11:20;22.80;99.90
22940;DHT22;11636;52.086;5.090;2023-07-28T12:14:35;22.90;99.90
22940;DHT22;11636;52.086;5.090;2023-07-28T12:17:32;23.00;99.90
22940;DHT22;11636;52.086;5.090;2023-07-28T12:20:23;23.00;99.90
22940;DHT22;11636;52.086;5.090;2023-07-28T12:23:19;23.00;99.90
22940;DHT22;11636;52.086;5.090;2023-07-28T12:26:09;23.20;99.90
22940;DHT22;11636;52.086;5.090;2023-07-28T12:29:03;23.60;99.90
22940;DHT22;11636;52.086;5.090;2023-07-28T12:31:56;23.90;99.90
22940;DHT22;11636;52.086;5.090;2023-07-28T12:34:50;23.90;99.90
22940;DHT22;11636;52.086;5.090;2023-07-28T12:37:44;23.60;99.90
22940;DHT22;11636;52.086;5.090;2023-07-28T12:40:34;23.40;99.90
22940;DHT22;11636;52.086;5.090;2023-07-28T12:43:31;23.30;99.90
22940;DHT22;11636;52.086;5.090;2023-07-28T12:46:21;23.20;99.90
22940;DHT22;11636;52.086;5.090;2023-07-28T12:49:15;23.30;99.90
22940;DHT22;11636;52.086;5.090;2023-07-28T12:52:06;23.40;99.90
22940;DHT22;11636;52.086;5.090;2023-07-28T12:55:06;23.40;99.90
22940;DHT22;11636;52.086;5.090;2023-07-28T12:57:56;23.40;99.90
22940;DHT22;11636;52.086;5.090;2023-07-28T13:01:11;23.40;99.90
22940;DHT22;11636;52.086;5.090;2023-07-28T13:04:05;23.70;99.90
22940;DHT22;11636;52.086;5.090;2023-07-28T13:06:52;23.80;99.90
22940;DHT22;11636;52.086;5.090;2023-07-28T13:09:49;23.80;99.90
22940;DHT22;11636;52.086;5.090;2023-07-28T13:12:37;24.00;99.90
22940;DHT22;11636;52.086;5.090;2023-07-28T13:15:33;24.00;99.90
22940;DHT22;11636;52.086;5.090;2023-07-28T13:18:20;24.00;99.90
22940;DHT22;11636;52.086;5.090;2023-07-28T13:21:14;23.90;99.90
22940;DHT22;11636;52.086;5.090;2023-07-28T13:24:08;24.00;99.90
22940;DHT22;11636;52.086;5.090;2023-07-28T13:27:02;24.20;99.90
22940;DHT22;11636;52.086;5.090;2023-07-28T13:29:49;24.50;99.90
22940;DHT22;11636;52.086;5.090;2023-07-28T13:32:43;24.60;99.90
22940;DHT22;11636;52.086;5.090;2023-07-28T13:35:37;24.70;99.90
22940;DHT22;11636;52.086;5.090;2023-07-28T13:38:24;24.60;99.90
22940;DHT22;11636;52.086;5.090;2023-07-28T13:41:18;24.40;99.90
22940;DHT22;11636;52.086;5.090;2023-07-28T13:44:12;24.30;99.90
22940;DHT22;11636;52.086;5.090;2023-07-28T13:47:01;24.40;99.90
22940;DHT22;11636;52.086;5.090;2023-07-28T13:49:55;24.50;99.90
22940;DHT22;11636;52.086;5.090;2023-07-28T13:52:49;24.60;99.90
22940;DHT22;11636;52.086;5.090;2023-07-28T13:55:36;25.10;99.90
22940;DHT22;11636;52.086;5.090;2023-07-28T13:58:31;25.40;99.90
22940;DHT22;11636;52.086;5.090;2023-07-28T14:01:18;25.70;99.90
22940;DHT22;11636;52.086;5.090;2023-07-28T14:04:12;25.90;99.90
22940;DHT22;11636;52.086;5.090;2023-07-28T14:07:01;25.90;99.90
22940;DHT22;11636;52.086;5.090;2023-07-28T14:09:54;25.80;99.90
22940;DHT22;11636;52.086;5.090;2023-07-28T14:12:41;25.70;99.90
22940;DHT22;11636;52.086;5.090;2023-07-28T14:15:35;25.60;99.90
22940;DHT22;11636;52.086;5.090;2023-07-28T14:18:29;25.30;99.90
22940;DHT22;11636;52.086;5.090;2023-07-28T14:21:16;24.80;99.90
22940;DHT22;11636;52.086;5.090;2023-07-28T14:24:10;24.40;99.90
22940;DHT22;11636;52.086;5.090;2023-07-28T14:26:58;24.00;99.90
22940;DHT22;11636;52.086;5.090;2023-07-28T14:29:51;23.70;99.90
22940;DHT22;11636;52.086;5.090;2023-07-28T14:32:38;23.40;99.90
22940;DHT22;11636;52.086;5.090;2023-07-28T14:35:32;23.20;99.90
22940;DHT22;11636;52.086;5.090;2023-07-28T14:38:19;23.10;99.90
22940;DHT22;11636;52.086;5.090;2023-07-28T14:41:13;22.90;99.90
22940;DHT22;11636;52.086;5.090;2023-07-28T14:44:00;23.00;99.90
22940;DHT22;11636;52.086;5.090;2023-07-28T14:46:54;23.40;99.90
22940;DHT22;11636;52.086;5.090;2023-07-28T14:49:48;23.60;99.90
22940;DHT22;11636;52.086;5.090;2023-07-28T14:52:35;23.60;99.90
22940;DHT22;11636;52.086;5.090;2023-07-28T14:55:29;23.60;99.90
22940;DHT22;11636;52.086;5.090;2023-07-28T14:58:16;23.50;99.90
22940;DHT22;11636;52.086;5.090;2023-07-28T15:01:10;23.70;99.90
22940;DHT22;11636;52.086;5.090;2023-07-28T15:03:58;23.70;99.90
22940;DHT22;11636;52.086;5.090;2023-07-28T15:06:52;23.50;99.90
22940;DHT22;11636;52.086;5.090;2023-07-28T15:09:46;23.60;99.90
22940;DHT22;11636;52.086;5.090;2023-07-28T15:12:40;23.70;99.90
22940;DHT22;11636;52.086;5.090;2023-07-28T15:15:34;23.80;99.90
22940;DHT22;11636;52.086;5.090;2023-07-28T15:18:21;23.70;99.90
22940;DHT22;11636;52.086;5.090;2023-07-28T15:21:15;23.60;99.90
22940;DHT22;11636;52.086;5.090;2023-07-28T15:24:02;23.30;99.90
22940;DHT22;11636;52.086;5.090;2023-07-28T15:26:56;23.10;99.90
22940;DHT22;11636;52.086;5.090;2023-07-28T15:29:43;22.80;99.90
22940;DHT22;11636;52.086;5.090;2023-07-28T15:32:37;22.70;99.90
22940;DHT22;11636;52.086;5.090;2023-07-28T15:35:31;22.60;99.90
22940;DHT22;11636;52.086;5.090;2023-07-28T15:38:25;22.40;99.90
22940;DHT22;11636;52.086;5.090;2023-07-28T15:41:13;22.40;99.90
22940;DHT22;11636;52.086;5.090;2023-07-28T15:44:07;22.40;99.90
22940;DHT22;11636;52.086;5.090;2023-07-28T15:46:54;22.40;99.90
22940;DHT22;11636;52.086;5.090;2023-07-28T15:49:48;22.50;99.90
22940;DHT22;11636;52.086;5.090;2023-07-28T15:52:39;22.50;99.90
22940;DHT22;11636;52.086;5.090;2023-07-28T15:55:33;22.40;99.90
22940;DHT22;11636;52.086;5.090;2023-07-28T15:58:30;22.40;99.90
22940;DHT22;11636;52.086;5.090;2023-07-28T16:01:24;22.40;99.90
22940;DHT22;11636;52.086;5.090;2023-07-28T16:04:13;22.20;99.90
22940;DHT22;11636;52.086;5.090;2023-07-28T16:07:07;22.00;99.90
22940;DHT22;11636;52.086;5.090;2023-07-28T16:09:54;21.80;99.90
22940;DHT22;11636;52.086;5.090;2023-07-28T16:12:48;21.80;99.90
22940;DHT22;11636;52.086;5.090;2023-07-28T16:15:35;21.90;99.90
22940;DHT22;11636;52.086;5.090;2023-07-28T16:18:29;21.90;99.90
22940;DHT22;11636;52.086;5.090;2023-07-28T16:21:16;21.90;99.90
22940;DHT22;11636;52.086;5.090;2023-07-28T16:24:10;21.90;99.90
22940;DHT22;11636;52.086;5.090;2023-07-28T16:27:04;21.90;99.90
22940;DHT22;11636;52.086;5.090;2023-07-28T16:29:51;21.80;99.90
22940;DHT22;11636;52.086;5.090;2023-07-28T16:32:45;21.70;99.90
22940;DHT22;11636;52.086;5.090;2023-07-28T16:35:34;21.60;99.90
22940;DHT22;11636;52.086;5.090;2023-07-28T16:38:27;21.60;99.90
22940;DHT22;11636;52.086;5.090;2023-07-28T16:41:14;21.50;99.90
22940;DHT22;11636;52.086;5.090;2023-07-28T16:44:08;21.40;99.90
22940;DHT22;11636;52.086;5.090;2023-07-28T16:46:55;21.30;99.90
22940;DHT22;11636;52.086;5.090;2023-07-28T16:49:49;21.30;99.90
22940;DHT22;11636;52.086;5.090;2023-07-28T16:52:43;21.20;99.90
22940;DHT22;11636;52.086;5.090;2023-07-28T16:55:30;21.20;99.90
22940;DHT22;11636;52.086;5.090;2023-07-28T16:58:24;21.20;99.90
22940;DHT22;11636;52.086;5.090;2023-07-28T17:01:11;21.20;99.90
22940;DHT22;11636;52.086;5.090;2023-07-28T17:04:05;21.20;99.90
22940;DHT22;11636;52.086;5.090;2023-07-28T17:06:52;21.20;99.90
22940;DHT22;11636;52.086;5.090;2023-07-28T17:09:46;21.20;99.90
22940;DHT22;11636;52.086;5.090;2023-07-28T17:12:33;21.30;99.90
22940;DHT22;11636;52.086;5.090;2023-07-28T17:15:27;21.20;99.90
22940;DHT22;11636;52.086;5.090;2023-07-28T17:18:27;21.20;99.90
22940;DHT22;11636;52.086;5.090;2023-07-28T17:21:20;21.20;99.90
22940;DHT22;11636;52.086;5.090;2023-07-28T17:24:14;21.30;99.90
22940;DHT22;11636;52.086;5.090;2023-07-28T17:27:15;21.30;99.90
22940;DHT22;11636;52.086;5.090;2023-07-28T17:30:08;21.40;99.90
22940;DHT22;11636;52.086;5.090;2023-07-28T17:32:56;21.40;99.90
22940;DHT22;11636;52.086;5.090;2023-07-28T17:35:50;21.40;99.90
22940;DHT22;11636;52.086;5.090;2023-07-28T17:38:43;21.40;99.90
22940;DHT22;11636;52.086;5.090;2023-07-28T17:41:31;21.40;99.90
22940;DHT22;11636;52.086;5.090;2023-07-28T17:44:25;21.50;99.90
22940;DHT22;11636;52.086;5.090;2023-07-28T17:47:18;21.50;99.90
22940;DHT22;11636;52.086;5.090;2023-07-28T17:50:07;21.60;99.90
22940;DHT22;11636;52.086;5.090;2023-07-28T17:53:01;21.60;99.90
22940;DHT22;11636;52.086;5.090;2023-07-28T17:55:55;21.60;99.90
22940;DHT22;11636;52.086;5.090;2023-07-28T17:58:43;21.70;99.90
22940;DHT22;11636;52.086;5.090;2023-07-28T18:01:37;21.70;99.90
22940;DHT22;11636;52.086;5.090;2023-07-28T18:04:30;21.70;99.90
22940;DHT22;11636;52.086;5.090;2023-07-28T18:07:17;21.70;99.90
22940;DHT22;11636;52.086;5.090;2023-07-28T18:10:11;21.70;99.90